Ice — ZCOE9 — position and weather

sailwx.info

Track history (hours):
 
Tides and Currents Weather Stations Pressure Air Temp Water Temp Dewpoint Dewpoint Depression Visibility Wind Speed Wind Dir Waves Ship Positions

Ice

Last reported at 2014-Sep-13 20:33 UTC. Time now 2014-Sep-21 02:06 UTC.
Position N 36°29' E 014°34'.

Length 90 m; draft 5 m.

Type: Other ship. MMSI: 319411000.

Date/timePositionNaut miles runAvg speedWind from/ knotsBaromVisibWave heightAir tempDewpointWater temp
2014-Sep-13 20:33N 36°29' E 014°34'1312.8
2014-Sep-13 19:31N 36°17' E 014°29'1512.1
2014-Sep-13 18:16N 36°04' E 014°18'0 0.1
2014-Sep-13 17:14N 36°04' E 014°18'0 0.0
2014-Sep-13 16:26N 36°04' E 014°18'0 0.0
2014-Sep-13 15:22N 36°04' E 014°18'0 0.0
2014-Sep-13 14:33N 36°04' E 014°18'0 0.0
2014-Sep-13 13:33N 36°04' E 014°18'0 0.0
2014-Sep-13 12:32N 36°04' E 014°18'0 0.0
2014-Sep-13 11:32N 36°04' E 014°18'0 0.0
2014-Sep-13 10:25N 36°04' E 014°18'0 0.0
2014-Sep-13 09:30N 36°04' E 014°18'3 3.0
2014-Sep-13 08:33N 36°02' E 014°21'4 4.3
2014-Sep-13 07:33N 35°59' E 014°24'0 0.0
2014-Sep-13 06:04N 35°59' E 014°24'0 0.0
2014-Sep-13 01:25N 35°59' E 014°24'0 0.0
2014-Sep-13 00:23N 35°59' E 014°24'0 0.0
2014-Sep-12 23:14N 35°59' E 014°24'0 0.0
2014-Sep-12 22:33N 35°59' E 014°24'8 7.6
2014-Sep-12 21:33N 35°54' E 014°31'0 0.0
2014-Sep-12 15:04N 35°54' E 014°31'510.6
2014-Sep-12 14:33N 35°58' E 014°27'4 3.5
2014-Sep-12 13:32N 35°59' E 014°23'0 0.0
2014-Sep-12 12:33N 35°59' E 014°23'0 0.0
2014-Sep-12 11:33N 35°59' E 014°23'0 0.0
2014-Sep-12 10:33N 35°59' E 014°23'0 0.1
2014-Sep-12 09:33N 35°59' E 014°23'0 0.0
2014-Sep-12 08:33N 35°59' E 014°23'0 0.0
2014-Sep-12 07:33N 35°59' E 014°23'0 0.0
2014-Sep-12 05:33N 35°59' E 014°23'0 0.0
2014-Sep-12 04:33N 35°59' E 014°23'0 0.0
2014-Sep-12 03:33N 35°59' E 014°23'0 0.4
2014-Sep-12 02:33N 35°59' E 014°23'140 6.0
2014-Sep-11 03:14N 38°07' E 015°34'6 9.3
2014-Sep-11 02:33N 38°13' E 015°36'8 7.3
2014-Sep-11 01:29N 38°19' E 015°30'1313.4
2014-Sep-11 00:32N 38°18' E 015°13'8810.3
2014-Sep-10 16:03N 38°12' E 013°22'0 0.0
2014-Sep-10 15:33N 38°12' E 013°22'0 0.0
2014-Sep-10 14:33N 38°12' E 013°22'0 0.0
2014-Sep-10 13:33N 38°12' E 013°22'0 0.0
2014-Sep-10 12:33N 38°12' E 013°22'  
Track history (hours):
 
Tides and Currents Weather Stations Pressure Air Temp Water Temp Dewpoint Dewpoint Depression Visibility Wind Speed Wind Dir Waves Ship Positions

Ice

Last reported at 2014-Sep-13 20:33 UTC. Time now 2014-Sep-21 02:06 UTC.
Position N 36°29' E 014°34'.

Length 90 m; draft 5 m.

Type: Other ship. MMSI: 319411000.

Date/timePositionNaut miles runAvg speedWind from/ knotsBaromVisibWave heightAir tempDewpointWater temp
2014-Sep-13 20:33N 36°29' E 014°34'1312.8
2014-Sep-13 19:31N 36°17' E 014°29'1512.1
2014-Sep-13 18:16N 36°04' E 014°18'0 0.1
2014-Sep-13 17:14N 36°04' E 014°18'0 0.0
2014-Sep-13 16:26N 36°04' E 014°18'0 0.0
2014-Sep-13 15:22N 36°04' E 014°18'0 0.0
2014-Sep-13 14:33N 36°04' E 014°18'0 0.0
2014-Sep-13 13:33N 36°04' E 014°18'0 0.0
2014-Sep-13 12:32N 36°04' E 014°18'0 0.0
2014-Sep-13 11:32N 36°04' E 014°18'0 0.0
2014-Sep-13 10:25N 36°04' E 014°18'0 0.0
2014-Sep-13 09:30N 36°04' E 014°18'3 3.0
2014-Sep-13 08:33N 36°02' E 014°21'4 4.3
2014-Sep-13 07:33N 35°59' E 014°24'0 0.0
2014-Sep-13 06:04N 35°59' E 014°24'0 0.0
2014-Sep-13 01:25N 35°59' E 014°24'0 0.0
2014-Sep-13 00:23N 35°59' E 014°24'0 0.0
2014-Sep-12 23:14N 35°59' E 014°24'0 0.0
2014-Sep-12 22:33N 35°59' E 014°24'8 7.6
2014-Sep-12 21:33N 35°54' E 014°31'0 0.0
2014-Sep-12 15:04N 35°54' E 014°31'510.6
2014-Sep-12 14:33N 35°58' E 014°27'4 3.5
2014-Sep-12 13:32N 35°59' E 014°23'0 0.0
2014-Sep-12 12:33N 35°59' E 014°23'0 0.0
2014-Sep-12 11:33N 35°59' E 014°23'0 0.0
2014-Sep-12 10:33N 35°59' E 014°23'0 0.1
2014-Sep-12 09:33N 35°59' E 014°23'0 0.0
2014-Sep-12 08:33N 35°59' E 014°23'0 0.0
2014-Sep-12 07:33N 35°59' E 014°23'0 0.0
2014-Sep-12 05:33N 35°59' E 014°23'0 0.0
2014-Sep-12 04:33N 35°59' E 014°23'0 0.0
2014-Sep-12 03:33N 35°59' E 014°23'0 0.4
2014-Sep-12 02:33N 35°59' E 014°23'140 6.0
2014-Sep-11 03:14N 38°07' E 015°34'6 9.3
2014-Sep-11 02:33N 38°13' E 015°36'8 7.3
2014-Sep-11 01:29N 38°19' E 015°30'1313.4
2014-Sep-11 00:32N 38°18' E 015°13'8810.3
2014-Sep-10 16:03N 38°12' E 013°22'0 0.0
2014-Sep-10 15:33N 38°12' E 013°22'0 0.0
2014-Sep-10 14:33N 38°12' E 013°22'0 0.0
2014-Sep-10 13:33N 38°12' E 013°22'0 0.0
2014-Sep-10 12:33N 38°12' E 013°22'  

Dump ship's entire track history